Latest Weather Observations for Kuitpo

IDS60801

Issued at 5:21 am CST Wednesday 2 September 2026 (issued every 10 minutes, with the page automatically refreshed every 10 minutes)

About weather observations | Map of weather stations | Latest weather observations for SA | Other Formats
Station Details ID: 023887 Name: KUITPO FOREST RESERVE Lat: -35.17 Lon: 138.68 Height: 365.0 m
Data from the previous 72 hours. | See also: Recent months at Kuitpo
Date/Time
CST
Temp
°C
App
Temp
°C
Dew
Point
°C
Rel
Hum
%
Delta-T
°C
Wind Press
QNH
hPa
Press
MSL
hPa
Rain since
9am
mm
Dir  Spd
km/h
Gust
km/h
Spd
kts
Gust
kts
02/05:00am 9.5 6.9 9.5 100 0.0 W 13 20 7 11 1015.1 1015.0 3.2
02/04:30am 10.0 8.0 10.0 100 0.0 W 11 17 6 9 1015.0 1014.9 3.2
02/04:00am 10.1 7.7 10.1 100 0.0 W 13 17 7 9 1014.9 1014.8 3.2
02/03:30am 10.2 8.2 10.2 100 0.0 WSW 11 19 6 10 1014.8 1014.7 3.2
02/03:00am 10.2 7.5 10.2 100 0.0 WSW 15 22 8 12 1014.9 1014.8 3.2
02/02:30am 10.5 8.2 10.5 100 0.0 W 13 17 7 9 1015.2 1015.1 3.2
02/02:00am 10.7 8.1 10.7 100 0.0 WSW 15 26 8 14 1015.4 1015.3 3.2
02/01:30am 10.9 8.7 10.9 100 0.0 W 13 20 7 11 1015.5 1015.4 3.2
02/01:00am 11.2 9.5 11.2 100 0.0 WSW 11 20 6 11 1015.3 1015.2 3.2
02/12:30am 11.7 10.5 11.7 100 0.0 WSW 9 15 5 8 1015.3 1015.2 3.2
02/12:00am 11.9 10.4 11.9 100 0.0 WSW 11 19 6 10 1015.3 1015.2 3.2
 
Date/Time
CST
Temp
°C
App
Temp
°C
Dew
Point
°C
Rel
Hum
%
Delta-T
°C
Wind Press
QNH
hPa
Press
MSL
hPa
Rain since
9am
mm
Dir  Spd
km/h
Gust
km/h
Spd
kts
Gust
kts
01/11:30pm 12.1 10.7 12.1 100 0.0 WSW 11 15 6 8 1015.4 1015.3 3.2
01/11:00pm 12.3 11.3 12.3 100 0.0 WSW 9 13 5 7 1015.7 1015.6 3.2
01/10:30pm 12.4 10.7 12.4 100 0.0 WSW 13 20 7 11 1015.6 1015.5 3.2
01/10:00pm 12.7 10.7 12.7 100 0.0 WSW 15 24 8 13 1015.6 1015.5 3.2
01/09:30pm 12.9 11.0 12.9 100 0.0 W 15 22 8 12 1015.7 1015.6 3.2
01/09:00pm 12.9 10.9 12.6 98 0.2 WNW 15 20 8 11 1015.5 1015.4 3.2
01/08:30pm 12.9 11.1 12.0 94 0.5 WNW 13 24 7 13 1015.2 1015.1 3.2
01/08:00pm 13.0 10.7 11.7 92 0.7 NW 15 20 8 11 1015.2 1015.1 3.2
01/07:30pm 13.1 10.3 11.5 90 0.9 WNW 17 26 9 14 1015.0 1014.9 3.2
01/07:00pm 13.2 10.6 10.7 85 1.3 W 15 32 8 17 1014.6 1014.5 3.2
01/06:30pm 13.8 11.2 10.8 82 1.6 NW 15 24 8 13 1014.2 1014.1 3.2
01/06:00pm 13.5 10.6 10.9 84 1.4 NW 17 26 9 14 1013.8 1013.6 3.2
01/05:30pm 13.2 11.0 12.1 93 0.6 NNW 15 24 8 13 1013.6 1013.4 3.2
01/05:00pm 12.5 10.7 12.2 98 0.2 NNW 13 24 7 13 1013.1 1013.0 3.2
01/04:30pm 12.1 10.6 11.9 99 0.1 N 11 20 6 11 1013.2 1013.1 3.0
01/04:00pm 12.3 10.8 12.0 98 0.2 NNE 11 19 6 10 1014.4 1014.3 2.6
01/03:30pm 12.7 9.9 11.4 92 0.7 NW 17 33 9 18 1015.1 1015.0 1.8
01/03:00pm 14.4 9.9 10.0 75 2.3 WNW 24 39 13 21 1015.2 1015.1 0.2
01/02:30pm 15.5 11.5 9.2 66 3.3 NW 20 33 11 18 1014.6 1014.5 0.0
01/02:04pm 16.7 12.0 7.6 55 4.7 NW 22 39 12 21 1014.6 1014.5 0.0
01/02:00pm 16.8 12.1 7.7 55 4.7 NW 22 39 12 21 1014.6 1014.5 0.0
01/01:33pm 17.6 11.6 7.1 50 5.4 NW 28 46 15 25 1014.1 1014.0 0.0
01/01:30pm 17.6 12.1 7.4 51 5.2 NW 26 41 14 22 1014.1 1014.0 0.0
01/01:29pm 17.5 11.9 7.0 50 5.3 NNW 26 39 14 21 1014.1 1014.0 0.0
01/01:11pm 18.4 12.6 7.8 50 5.5 NNW 28 46 15 25 1014.3 1014.2 0.0
01/01:07pm 18.3 12.0 7.4 49 5.6 NNW 30 44 16 24 1014.3 1014.2 0.0
01/01:00pm 18.4 12.1 7.2 48 5.7 NNW 30 44 16 24 1014.2 1014.1 0.0
01/12:47pm 18.2 12.1 6.7 47 5.8 NNW 28 56 15 30 1014.4 1014.3 0.0
01/12:43pm 18.8 13.7 7.6 48 5.8 NNW 24 44 13 24 1014.6 1014.5 0.0
01/12:31pm 18.3 12.4 7.4 49 5.6 NNW 28 54 15 29 1014.8 1014.7 0.0
01/12:30pm 18.4 12.8 7.2 48 5.7 NNW 26 54 14 29 1014.7 1014.6 0.0
01/12:24pm 17.7 12.0 6.9 49 5.5 NNW 26 48 14 26 1015.1 1015.0 0.0
01/12:08pm 17.9 11.7 6.1 46 5.9 NNW 28 46 15 25 1015.3 1015.2 0.0
01/12:00pm 18.7 13.2 7.5 48 5.8 NNW 26 44 14 24 1015.1 1015.0 0.0
01/11:46am 18.1 12.8 6.6 47 5.8 NNW 24 46 13 25 1015.2 1015.1 0.0
01/11:31am 18.6 12.5 6.4 45 6.2 NNW 28 48 15 26 1015.6 1015.5 0.0
01/11:30am 18.7 13.0 6.9 46 6.0 NNW 26 48 14 26 1015.6 1015.5 0.0
01/11:00am 18.2 13.3 6.7 47 5.8 NNW 22 48 12 26 1016.5 1016.4 0.0
01/10:30am 16.4 11.2 5.7 49 5.3 N 22 39 12 21 1016.0 1015.9 0.0
01/10:00am 16.6 11.8 5.6 48 5.4 NNW 20 44 11 24 1017.0 1016.9 0.0
01/09:30am 17.3 12.6 5.9 47 5.7 NNW 20 35 11 19 1017.3 1017.2 0.0
01/09:00am 17.5 13.1 6.7 49 5.4 NNW 19 35 10 19 1017.6 1017.8 0.2
01/08:30am 15.6 11.5 6.3 54 4.6 NNW 17 28 9 15 1017.7 1017.9 0.2
01/08:00am 16.3 11.2 6.2 51 5.0 NNW 22 39 12 21 1017.4 1017.6 0.2
01/07:30am 15.9 10.4 5.8 51 4.9 NNW 24 44 13 24 1017.5 1017.7 0.2
01/07:27am 15.8 10.7 6.0 52 4.8 NNW 22 44 12 24 1017.5 1017.7 0.2
01/07:16am 15.6 9.3 5.5 51 4.9 NNW 28 52 15 28 1017.4 1017.6 0.2
01/07:00am 14.5 9.7 5.6 55 4.3 NNW 20 35 11 19 1017.3 1017.5 0.2
01/06:30am 13.4 8.7 5.3 58 3.9 NNW 19 30 10 16 1017.4 1017.6 0.2
01/06:00am 13.5 8.6 4.9 56 4.1 NNW 20 35 11 19 1017.4 1017.6 0.2
01/05:30am 13.8 8.5 4.9 55 4.2 NNW 22 39 12 21 1017.4 1017.6 0.2
01/05:00am 12.9 8.5 4.8 58 3.8 NNW 17 32 9 17 1017.6 1017.8 0.2
01/04:30am 12.2 8.2 4.9 61 3.4 NNW 15 26 8 14 1017.8 1018.0 0.2
01/04:00am 12.0 9.2 5.0 62 3.3 N 9 20 5 11 1018.1 1018.3 0.2
01/03:30am 12.4 9.2 4.9 60 3.5 N 11 17 6 9 1018.7 1018.9 0.2
01/03:00am 12.9 9.6 4.8 58 3.8 N 11 20 6 11 1019.2 1019.4 0.2
01/02:30am 13.7 9.7 4.8 55 4.2 NNW 15 28 8 15 1019.6 1019.8 0.2
01/02:00am 13.7 9.7 5.1 56 4.1 NNW 15 24 8 13 1020.0 1020.2 0.2
01/01:30am 13.3 9.7 5.0 57 3.9 NNW 13 22 7 12 1020.4 1020.6 0.2
01/01:00am 13.2 10.0 4.9 57 3.9 NNW 11 17 6 9 1021.1 1021.3 0.2
01/12:30am 13.1 9.6 5.3 59 3.7 NNW 13 19 7 10 1021.2 1021.4 0.2
01/12:00am 13.1 9.5 5.0 58 3.8 N 13 20 7 11 1021.5 1021.8 0.2
 
Date/Time
CST
Temp
°C
App
Temp
°C
Dew
Point
°C
Rel
Hum
%
Delta-T
°C
Wind Press
QNH
hPa
Press
MSL
hPa
Rain since
9am
mm
Dir  Spd
km/h
Gust
km/h
Spd
kts
Gust
kts
31/11:30pm 12.7 9.1 4.9 59 3.7 N 13 22 7 12 1022.1 1022.3 0.2
31/11:00pm 11.5 8.8 5.6 67 2.8 N 9 17 5 9 1022.7 1022.9 0.2
31/10:30pm 11.0 8.2 5.1 67 2.7 NNE 9 13 5 7 1023.1 1023.3 0.2
31/10:00pm 11.4 8.2 5.3 66 2.9 NE 11 19 6 10 1023.2 1023.4 0.2
31/09:30pm 11.7 8.6 5.6 66 2.9 NE 11 17 6 9 1023.4 1023.6 0.2
31/09:00pm 11.8 9.1 5.4 65 3.0 NE 9 13 5 7 1023.7 1024.0 0.2
31/08:30pm 12.3 9.3 6.1 66 3.0 NE 11 15 6 8 1023.8 1024.1 0.2
31/08:00pm 12.3 10.0 7.6 73 2.3 NE 9 15 5 8 1024.0 1024.3 0.2
31/07:30pm 12.8 10.8 8.5 75 2.2 NE 9 15 5 8 1024.3 1024.6 0.2
31/07:00pm 13.1 12.9 9.0 76 2.1 CALM 0 0 0 0 1024.5 1024.8 0.2
31/06:30pm 13.6 13.4 8.9 73 2.4 CALM 0 0 0 0 1024.4 1024.7 0.2
31/06:00pm 14.0 13.7 8.8 71 2.7 CALM 0 7 0 4 1024.5 1024.8 0.2
31/05:30pm 15.3 13.8 9.2 67 3.2 W 7 11 4 6 1024.6 1024.9 0.2
31/05:00pm 16.4 14.7 9.8 65 3.5 WSW 9 15 5 8 1024.5 1024.8 0.2
31/04:30pm 17.1 15.4 9.8 62 3.9 W 9 15 5 8 1024.5 1024.8 0.2
31/04:00pm 18.0 16.2 9.4 57 4.6 W 9 15 5 8 1024.9 1025.1 0.2
31/03:30pm 18.5 16.6 9.0 54 5.0 W 9 17 5 9 1025.2 1025.4 0.2
31/03:00pm 19.0 16.7 8.9 52 5.3 NW 11 22 6 12 1025.3 1025.5 0.2
31/02:30pm 19.2 16.8 7.0 45 6.2 NNW 9 17 5 9 1025.5 1025.7 0.2
31/02:00pm 18.3 16.3 8.8 54 5.0 W 9 13 5 7 1026.0 1026.3 0.2
31/01:30pm 17.8 15.8 8.6 55 4.8 WNW 9 15 5 8 1026.5 1026.8 0.2
31/01:00pm 17.8 15.9 8.9 56 4.7 NW 9 15 5 8 1027.2 1027.5 0.2
31/12:30pm 17.7 16.3 9.6 59 4.3 WNW 7 13 4 7 1027.9 1028.1 0.2
31/12:00pm 17.4 15.1 9.1 58 4.4 WNW 11 17 6 9 1028.4 1028.7 0.2
31/11:30am 16.7 14.6 9.9 64 3.6 W 11 17 6 9 1028.8 1029.1 0.2
31/11:00am 18.2 16.4 7.9 51 5.4 N 7 13 4 7 1029.1 1029.4 0.0
31/10:30am 17.0 14.0 6.2 49 5.3 NE 11 20 6 11 1029.3 1029.6 0.0
31/10:00am 16.3 13.8 8.3 59 4.1 NE 11 19 6 10 1029.4 1029.7 0.0
31/09:30am 14.6 11.7 8.3 66 3.2 ENE 13 19 7 10 1029.4 1029.7 0.0
31/09:00am 12.9 9.6 8.0 72 2.4 ENE 15 22 8 12 1029.6 1029.9 0.2
31/08:30am 11.8 8.2 8.5 80 1.7 ENE 17 22 9 12 1029.6 1029.9 0.2
31/08:00am 10.8 7.3 8.6 86 1.1 ENE 17 24 9 13 1029.5 1029.8 0.2
31/07:30am 9.9 6.0 8.8 93 0.5 ENE 19 24 10 13 1029.6 1029.9 0.2
31/07:00am 8.9 5.0 8.8 99 0.0 ENE 19 24 10 13 1029.5 1029.8 0.2
31/06:30am 8.7 4.8 8.7 100 0.0 ENE 19 24 10 13 1029.5 1029.8 0.2
31/06:00am 8.5 4.6 8.5 100 0.0 ENE 19 24 10 13 1029.5 1029.8 0.2
31/05:30am 8.4 4.8 8.4 100 0.0 ENE 17 20 9 11 1029.4 1029.7 0.2
31/05:00am 8.3 4.7 8.3 100 0.0 ENE 17 22 9 12 1029.4 1029.7 0.2
31/04:30am 8.4 4.4 8.4 100 0.0 ENE 19 24 10 13 1029.3 1029.6 0.2
31/04:00am 8.7 5.2 8.7 100 0.0 ENE 17 20 9 11 1029.5 1029.8 0.2
31/03:30am 8.5 4.9 8.5 100 0.0 E 17 22 9 12 1029.7 1030.0 0.2
31/03:00am 8.3 5.1 8.3 100 0.0 ENE 15 19 8 10 1030.0 1030.3 0.0
31/02:30am 8.0 4.7 8.0 100 0.0 ENE 15 19 8 10 1030.2 1030.5 0.0
31/02:00am 8.0 4.7 8.0 100 0.0 ENE 15 20 8 11 1030.3 1030.6 0.0
31/01:30am 8.1 4.4 8.1 100 0.0 ENE 17 20 9 11 1030.5 1030.9 0.0
31/01:00am 8.1 4.8 8.1 100 0.0 ENE 15 20 8 11 1030.9 1031.2 0.0
31/12:30am 8.3 5.1 8.3 100 0.0 E 15 19 8 10 1030.9 1031.2 0.0
31/12:00am 8.5 5.3 8.5 100 0.0 E 15 20 8 11 1031.0 1031.3 0.0
 
Date/Time
CST
Temp
°C
App
Temp
°C
Dew
Point
°C
Rel
Hum
%
Delta-T
°C
Wind Press
QNH
hPa
Press
MSL
hPa
Rain since
9am
mm
Dir  Spd
km/h
Gust
km/h
Spd
kts
Gust
kts
30/11:30pm 8.9 6.2 8.9 100 0.0 E 13 20 7 11 1031.3 1031.6 0.0
30/11:00pm 9.0 5.9 9.0 100 0.0 E 15 19 8 10 1031.6 1031.9 0.0
30/10:30pm 9.0 5.6 9.0 100 0.0 E 17 22 9 12 1031.6 1031.9 0.0
30/10:00pm 8.9 5.4 8.9 100 0.0 E 17 20 9 11 1031.6 1031.9 0.0
30/09:30pm 8.7 4.8 8.7 100 0.0 ESE 19 26 10 14 1031.5 1031.8 0.0
30/09:00pm 8.9 4.9 8.9 100 0.0 ESE 20 28 11 15 1031.3 1031.6 0.0
30/08:30pm 8.9 5.1 8.9 100 0.0 ESE 19 24 10 13 1031.2 1031.5 0.0
30/08:00pm 9.1 6.4 9.0 99 0.1 ESE 13 17 7 9 1031.2 1031.5 0.0
30/07:30pm 9.3 6.4 8.1 92 0.6 SE 13 19 7 10 1030.9 1031.2 0.0
30/07:00pm 10.2 6.8 7.6 84 1.3 SE 15 20 8 11 1030.5 1030.9 0.0
30/06:30pm 10.8 7.8 9.2 90 0.8 SE 15 24 8 13 1030.5 1030.9 0.0
30/06:00pm 12.1 9.7 10.0 87 1.1 ESE 13 19 7 10 1030.7 1031.0 0.0
30/05:30pm 13.4 11.0 10.0 80 1.8 ESE 13 20 7 11 1030.5 1030.9 0.0
30/05:00pm 14.7 12.1 9.3 70 2.8 ESE 13 19 7 10 1030.5 1030.9 0.0
30/04:30pm 15.5 12.1 7.5 59 4.0 ESE 15 20 8 11 1030.8 1031.1 0.0
30/04:00pm 16.1 13.7 8.8 62 3.8 ESE 11 15 6 8 1030.8 1031.1 0.0
30/03:30pm 16.7 15.9 11.0 69 3.1 W 6 11 3 6 1031.0 1031.3 0.0
30/03:00pm 16.0 14.0 10.3 69 3.0 WSW 11 15 6 8 1031.2 1031.5 0.0
30/02:30pm 16.0 14.3 9.9 67 3.2 WSW 9 13 5 7 1031.3 1031.6 0.0
30/02:00pm 15.8 13.0 9.9 68 3.1 W 15 20 8 11 1031.5 1031.8 0.0
30/01:30pm 16.9 14.7 9.3 61 4.0 WSW 11 15 6 8 1031.7 1032.0 0.0
30/01:00pm 17.0 15.3 8.4 57 4.5 W 7 11 4 6 1032.1 1032.4 0.0
30/12:30pm 16.6 14.8 7.3 54 4.7 ESE 6 11 3 6 1032.4 1032.7 0.0
30/12:00pm 15.8 13.2 6.0 52 4.8 NE 9 13 5 7 1032.8 1033.1 0.0
30/11:30am 16.1 14.1 7.1 55 4.5 ENE 7 13 4 7 1033.0 1033.4 0.0
30/11:00am 14.5 11.4 5.6 55 4.3 ENE 11 15 6 8 1033.2 1033.6 0.0
30/10:30am 14.2 11.5 7.3 63 3.4 E 11 15 6 8 1033.2 1033.6 0.0
30/10:00am 12.5 10.1 6.8 68 2.8 E 9 15 5 8 1033.4 1033.8 0.0
30/09:30am 12.5 10.9 8.8 78 1.9 ENE 7 11 4 6 1033.4 1033.8 0.0
30/09:00am 11.0 8.2 8.6 85 1.2 ENE 13 19 7 10 1033.3 1033.7 0.2
30/08:30am 9.8 6.3 8.7 93 0.5 ENE 17 24 9 13 1033.1 1033.5 0.2
30/08:00am 8.6 4.4 8.3 98 0.1 E 20 28 11 15 1032.9 1033.3 0.2
30/07:30am 7.7 2.6 7.7 100 0.0 E 24 33 13 18 1032.8 1033.1 0.2
30/07:00am 7.3 2.5 7.3 100 0.0 E 22 32 12 17 1032.6 1032.9 0.2
30/06:30am 7.2 2.8 7.2 100 0.0 E 20 28 11 15 1032.3 1032.6 0.2
30/06:00am 7.4 2.6 7.4 100 0.0 ESE 22 35 12 19 1032.2 1032.5 0.2
30/05:30am 7.2 2.9 7.2 100 0.0 ESE 19 28 10 15 1032.3 1032.6 0.2

Other formats

Comma delimited format used in spreadsheet applications
http://www.bom.gov.au/fwo/IDS60801/IDS60801.94683.axf

JavaScript Object Notation format (JSON) in row-major order
http://www.bom.gov.au/fwo/IDS60801/IDS60801.94683.json

Data quality

Most of these data are generated automatically and are frequently updated. Quality checks on data are not normally performed. It is possible for incorrect values to appear. Refer to information at About Latest Weather Observations and please check the disclaimer before using these data.